createdAt,value
2023-02-17T00:01:38.421Z,8.47
2023-02-17T00:04:06.966Z,8.17
2023-02-17T00:06:35.409Z,8.53
2023-02-17T00:09:04.472Z,9.16
2023-02-17T00:11:33.619Z,9.65
2023-02-17T00:14:02.179Z,9.51
2023-02-17T00:16:30.894Z,8.96
2023-02-17T00:19:01.908Z,8.47
2023-02-17T00:21:32.670Z,8.13
2023-02-17T00:24:01.256Z,8.32
2023-02-17T00:26:30.580Z,8.94
2023-02-17T00:28:59.489Z,9.48
2023-02-17T00:31:28.085Z,9.89
2023-02-17T00:33:57.258Z,9.68
2023-02-17T00:36:27.328Z,9.05
2023-02-17T00:38:57.806Z,8.54
2023-02-17T00:41:27.965Z,8.21
2023-02-17T00:44:00.236Z,8.52
2023-02-17T00:46:28.823Z,9.14
2023-02-17T00:48:57.302Z,9.64
2023-02-17T00:51:26.843Z,9.86
2023-02-17T00:53:55.282Z,9.36
2023-02-17T00:56:23.700Z,8.80
2023-02-17T00:58:53.107Z,8.37
2023-02-17T01:01:21.756Z,8.15
2023-02-17T01:03:50.242Z,8.65
2023-02-17T01:06:28.531Z,9.27
2023-02-17T01:08:57.745Z,9.83
2023-02-17T01:11:29.059Z,10.02
2023-02-17T01:14:01.988Z,9.46
2023-02-17T01:16:35.457Z,8.91
2023-02-17T01:19:07.293Z,8.49
2023-02-17T01:21:36.467Z,8.18
2023-02-17T01:24:08.613Z,8.26
2023-02-17T01:26:37.635Z,8.95
2023-02-17T01:29:07.407Z,9.54
2023-02-17T01:31:37.351Z,9.90
2023-02-17T01:34:06.300Z,9.48
2023-02-17T01:36:35.342Z,8.90
2023-02-17T01:39:04.275Z,8.47
2023-02-17T01:41:32.869Z,8.15
2023-02-17T01:44:19.826Z,8.29
2023-02-17T01:46:50.749Z,9.00
2023-02-17T01:49:34.511Z,9.57
2023-02-17T01:52:17.345Z,9.75
2023-02-17T01:54:52.716Z,9.16
2023-02-17T01:57:26.973Z,8.62
2023-02-17T01:59:56.530Z,8.24
2023-02-17T02:02:29.595Z,8.21
2023-02-17T02:05:00.466Z,8.87
2023-02-17T02:07:32.693Z,9.48
2023-02-17T02:10:01.356Z,9.90
2023-02-17T02:12:34.459Z,9.57
2023-02-17T02:15:08.628Z,8.97
2023-02-17T02:17:46.150Z,8.54
2023-02-17T02:20:34.084Z,8.22
2023-02-17T02:23:47.776Z,8.52
2023-02-17T02:26:55.245Z,9.39
2023-02-17T02:29:42.303Z,10.02
2023-02-17T02:32:35.686Z,9.89
2023-02-17T02:35:19.459Z,9.22
2023-02-17T02:38:01.286Z,8.73
2023-02-17T02:40:35.068Z,8.36
2023-02-17T02:43:05.448Z,8.19
2023-02-17T02:45:35.751Z,8.72
2023-02-17T02:48:04.295Z,9.43
2023-02-17T02:50:54.644Z,9.86
2023-02-17T02:53:28.652Z,9.55
2023-02-17T02:56:16.286Z,8.99
2023-02-17T02:58:50.916Z,8.52
2023-02-17T03:01:30.538Z,8.21
2023-02-17T03:04:05.015Z,8.33
2023-02-17T03:06:58.539Z,9.02
2023-02-17T03:09:28.909Z,9.66
2023-02-17T03:11:58.560Z,9.94
2023-02-17T03:14:35.806Z,9.50
2023-02-17T03:17:04.862Z,8.96
2023-02-17T03:19:33.267Z,8.54
2023-02-17T03:22:20.538Z,8.35
2023-02-17T03:24:49.703Z,8.92
2023-02-17T03:27:18.354Z,9.55
2023-02-17T03:29:46.961Z,9.98
2023-02-17T03:32:15.421Z,9.67
2023-02-17T03:34:43.962Z,9.10
2023-02-17T03:37:12.501Z,8.66
2023-02-17T03:39:40.990Z,8.34
2023-02-17T03:42:09.520Z,8.52
2023-02-17T03:44:38.089Z,9.17
2023-02-17T03:47:07.605Z,9.75
2023-02-17T03:49:36.041Z,10.12
2023-02-17T03:52:04.864Z,9.86
2023-02-17T03:54:33.420Z,9.25
2023-02-17T03:57:02.223Z,8.87
2023-02-17T03:59:30.955Z,9.23
2023-02-17T04:01:59.431Z,9.81
2023-02-17T04:04:28.049Z,10.22
2023-02-17T04:06:56.505Z,10.57
2023-02-17T04:09:24.891Z,10.53
2023-02-17T04:11:53.343Z,9.85
2023-02-17T04:14:22.323Z,9.24
2023-02-17T04:16:50.732Z,8.74
2023-02-17T04:19:21.156Z,8.48
2023-02-17T04:21:49.945Z,8.93
2023-02-17T04:24:18.441Z,9.49
2023-02-17T04:26:46.842Z,9.94
2023-02-17T04:29:15.375Z,10.30
2023-02-17T04:31:43.948Z,10.60
2023-02-17T04:34:12.544Z,10.85
2023-02-17T04:36:42.895Z,11.09
2023-02-17T04:39:12.905Z,10.94
2023-02-17T04:41:41.435Z,10.21
2023-02-17T04:44:09.882Z,9.53
2023-02-17T04:46:38.598Z,9.00
2023-02-17T04:49:07.077Z,8.85
2023-02-17T04:51:35.514Z,9.38
2023-02-17T04:54:04.070Z,9.86
2023-02-17T04:56:32.580Z,10.22
2023-02-17T04:59:01.247Z,10.33
2023-02-17T05:01:29.883Z,9.72
2023-02-17T05:03:58.454Z,9.07
2023-02-17T05:06:26.882Z,8.62
2023-02-17T05:08:55.317Z,8.92
2023-02-17T05:11:23.846Z,9.48
2023-02-17T05:13:52.249Z,9.88
2023-02-17T05:16:20.724Z,10.25
2023-02-17T05:18:50.021Z,10.54
2023-02-17T05:21:18.473Z,10.50
2023-02-17T05:23:47.069Z,9.79
2023-02-17T05:26:15.557Z,9.15
2023-02-17T05:28:44.158Z,8.77
2023-02-17T05:31:13.475Z,9.15
2023-02-17T05:33:42.233Z,9.69
2023-02-17T05:36:11.641Z,10.06
2023-02-17T05:38:40.968Z,10.37
2023-02-17T05:41:09.561Z,10.66
2023-02-17T05:43:38.099Z,10.63
2023-02-17T05:46:07.036Z,9.93
2023-02-17T05:48:35.801Z,9.29
2023-02-17T05:51:04.669Z,9.00
2023-02-17T05:53:33.259Z,9.41
2023-02-17T05:56:01.872Z,9.88
2023-02-17T05:58:30.918Z,10.26
2023-02-17T06:00:59.297Z,10.55
2023-02-17T06:03:27.921Z,10.80
2023-02-17T06:05:56.469Z,10.98
2023-02-17T06:08:25.066Z,10.57
2023-02-17T06:10:54.414Z,9.84
2023-02-17T06:13:22.918Z,9.24
2023-02-17T06:15:51.399Z,9.19
2023-02-17T06:18:20.094Z,9.68
2023-02-17T06:20:48.613Z,10.11
2023-02-17T06:23:17.512Z,10.45
2023-02-17T06:25:46.588Z,10.74
2023-02-17T06:28:15.159Z,10.98
2023-02-17T06:30:43.716Z,11.11
2023-02-17T06:33:12.311Z,10.58
2023-02-17T06:35:40.790Z,9.84
2023-02-17T06:38:09.308Z,9.47
2023-02-17T06:40:37.938Z,9.84
2023-02-17T06:43:07.176Z,10.24
2023-02-17T06:45:35.721Z,10.55
2023-02-17T06:48:04.441Z,10.82
2023-02-17T06:50:32.963Z,11.00
2023-02-17T06:53:01.384Z,11.23
2023-02-17T06:55:30.049Z,11.43
2023-02-17T06:57:58.408Z,11.09
2023-02-17T07:00:27.375Z,10.34
2023-02-17T07:02:56.054Z,10.09
2023-02-17T07:05:25.188Z,10.48
2023-02-17T07:07:53.971Z,10.88
2023-02-17T07:10:22.448Z,11.20
2023-02-17T07:12:51.484Z,11.42
2023-02-17T07:15:20.003Z,11.56
2023-02-17T07:17:48.546Z,11.58
2023-02-17T07:20:17.412Z,10.94
2023-02-17T07:22:45.975Z,10.22
2023-02-17T07:25:14.684Z,10.19
2023-02-17T07:27:43.221Z,10.65
2023-02-17T07:30:12.264Z,11.01
2023-02-17T07:32:41.508Z,11.30
2023-02-17T07:35:10.350Z,11.54
2023-02-17T07:37:38.984Z,11.75
2023-02-17T07:40:08.319Z,11.89
2023-02-17T07:42:36.768Z,11.72
2023-02-17T07:45:06.174Z,11.01
2023-02-17T07:47:34.738Z,10.49
2023-02-17T07:50:03.429Z,10.74
2023-02-17T07:52:31.902Z,11.13
2023-02-17T07:55:00.512Z,11.38
2023-02-17T07:57:30.302Z,11.71
2023-02-17T07:59:58.865Z,11.96
2023-02-17T08:02:27.557Z,12.17
2023-02-17T08:04:56.453Z,12.23
2023-02-17T08:07:25.079Z,11.61
2023-02-17T08:10:12.824Z,10.91
2023-02-17T08:13:00.166Z,11.07
2023-02-17T08:15:28.786Z,11.44
2023-02-17T08:17:57.698Z,11.68
2023-02-17T08:20:26.244Z,11.87
2023-02-17T08:22:54.715Z,12.07
2023-02-17T08:25:23.223Z,12.20
2023-02-17T08:27:51.697Z,12.32
2023-02-17T08:30:20.301Z,12.42
2023-02-17T08:32:48.864Z,12.32
2023-02-17T08:35:20.594Z,11.61
2023-02-17T08:37:50.399Z,11.01
2023-02-17T08:40:19.746Z,11.17
2023-02-17T08:42:48.660Z,11.51
2023-02-17T08:45:18.341Z,11.86
2023-02-17T08:47:46.810Z,12.11
2023-02-17T08:50:16.754Z,12.28
2023-02-17T08:52:45.250Z,12.46
2023-02-17T08:55:15.450Z,12.58
2023-02-17T08:57:44.768Z,12.61
2023-02-17T09:00:14.187Z,12.63
2023-02-17T09:02:45.245Z,12.63
2023-02-17T09:05:15.241Z,12.70
2023-02-17T09:07:43.871Z,12.79
2023-02-17T09:10:14.822Z,12.92
2023-02-17T09:12:43.488Z,13.07
2023-02-17T09:15:12.001Z,12.92
2023-02-17T09:17:42.081Z,12.14
2023-02-17T09:20:23.983Z,11.61
2023-02-17T09:22:53.556Z,11.91
2023-02-17T09:25:22.503Z,12.30
2023-02-17T09:27:51.452Z,12.56
2023-02-17T09:30:20.020Z,12.77
2023-02-17T09:32:48.766Z,12.88
2023-02-17T09:35:18.633Z,12.94
2023-02-17T09:37:47.987Z,13.04
2023-02-17T09:40:47.492Z,13.07
2023-02-17T09:43:29.188Z,13.12
2023-02-17T09:46:03.003Z,13.25
2023-02-17T09:48:33.202Z,13.30
2023-02-17T09:51:12.554Z,13.47
2023-02-17T09:54:00.189Z,13.62
2023-02-17T09:56:34.779Z,13.70
2023-02-17T09:59:20.053Z,13.75
2023-02-17T10:01:51.145Z,13.78
2023-02-17T10:04:27.615Z,13.77
2023-02-17T10:07:20.412Z,13.70
2023-02-17T10:10:03.563Z,13.67
2023-02-17T10:12:39.949Z,13.65
2023-02-17T10:15:17.927Z,13.69
2023-02-17T10:17:51.294Z,13.78
2023-02-17T10:20:33.588Z,13.85
2023-02-17T10:23:19.097Z,13.85
2023-02-17T10:26:15.857Z,13.88
2023-02-17T10:29:01.049Z,13.77
2023-02-17T10:32:08.492Z,13.82
2023-02-17T10:35:16.790Z,13.96
2023-02-17T10:37:51.451Z,14.02
2023-02-17T10:40:22.831Z,14.12
2023-02-17T10:42:55.532Z,14.06
2023-02-17T10:45:33.991Z,14.03
2023-02-17T10:48:18.818Z,14.03
2023-02-17T10:50:48.820Z,14.15
2023-02-17T10:53:23.170Z,14.17
2023-02-17T10:56:10.738Z,14.12
2023-02-17T10:58:55.686Z,14.21
2023-02-17T11:01:24.592Z,14.17
2023-02-17T11:04:06.015Z,14.23
2023-02-17T11:06:58.185Z,14.35
2023-02-17T11:09:32.363Z,14.32
2023-02-17T11:12:04.533Z,14.24
2023-02-17T11:14:35.500Z,14.33
2023-02-17T11:17:16.797Z,14.33
2023-02-17T11:19:59.262Z,14.27
2023-02-17T11:22:48.819Z,14.36
2023-02-17T11:25:26.435Z,14.39
2023-02-17T11:28:01.836Z,14.45
2023-02-17T11:30:33.137Z,14.39
2023-02-17T11:33:14.323Z,14.38
2023-02-17T11:35:42.767Z,14.48
2023-02-17T11:38:19.808Z,14.47
2023-02-17T11:40:59.369Z,14.47
2023-02-17T11:43:30.166Z,14.51
2023-02-17T11:46:12.434Z,14.56
2023-02-17T11:48:52.736Z,14.54
2023-02-17T11:51:45.993Z,14.51
2023-02-17T11:54:33.137Z,14.46
2023-02-17T11:57:39.935Z,14.45
2023-02-17T12:00:33.327Z,14.38
2023-02-17T12:03:13.939Z,14.37
2023-02-17T12:06:12.501Z,14.33
2023-02-17T12:09:11.471Z,14.30
2023-02-17T12:12:17.226Z,14.21
2023-02-17T12:14:49.658Z,14.22
2023-02-17T12:17:24.815Z,14.09
2023-02-17T12:20:15.274Z,14.18
2023-02-17T12:22:46.599Z,14.27
2023-02-17T12:25:24.437Z,14.93
2023-02-17T12:28:01.572Z,16.11
2023-02-17T12:30:41.961Z,15.16
2023-02-17T12:33:29.010Z,13.96
2023-02-17T12:36:14.258Z,13.85
2023-02-17T12:38:53.430Z,13.95
2023-02-17T12:41:37.457Z,14.08
2023-02-17T12:44:17.491Z,14.14
2023-02-17T12:46:51.818Z,14.22
2023-02-17T12:49:58.946Z,14.29
2023-02-17T12:52:37.772Z,14.28
2023-02-17T12:55:21.020Z,14.39
2023-02-17T12:58:01.254Z,14.51
2023-02-17T13:00:34.143Z,14.44
2023-02-17T13:03:04.483Z,14.37
2023-02-17T13:05:44.661Z,14.32
2023-02-17T13:08:22.152Z,14.30
2023-02-17T13:11:05.123Z,14.22
2023-02-17T13:13:35.839Z,14.29
2023-02-17T13:16:06.614Z,14.22
2023-02-17T13:18:38.448Z,14.24
2023-02-17T13:21:32.315Z,14.28
2023-02-17T13:24:07.978Z,14.25
2023-02-17T13:26:39.215Z,14.27
2023-02-17T13:29:24.948Z,14.28
2023-02-17T13:32:05.402Z,14.19
2023-02-17T13:34:43.811Z,14.25
2023-02-17T13:37:18.849Z,14.19
2023-02-17T13:39:47.431Z,14.34
2023-02-17T13:42:40.759Z,14.43
2023-02-17T13:45:27.389Z,14.31
2023-02-17T13:48:01.060Z,14.28
2023-02-17T13:50:29.986Z,14.21
2023-02-17T13:52:58.818Z,14.23
2023-02-17T13:55:27.385Z,14.26
2023-02-17T13:57:58.738Z,14.25
2023-02-17T14:00:30.203Z,14.24
2023-02-17T14:03:17.703Z,14.26
2023-02-17T14:05:48.402Z,14.34
2023-02-17T14:08:37.076Z,14.42
2023-02-17T14:11:08.344Z,14.25
2023-02-17T14:13:46.095Z,14.23
2023-02-17T14:16:36.228Z,14.23
2023-02-17T14:19:08.150Z,14.08
2023-02-17T14:21:40.172Z,14.09
2023-02-17T14:24:23.684Z,14.19
2023-02-17T14:27:07.215Z,14.22
2023-02-17T14:29:47.358Z,14.26
2023-02-17T14:32:40.589Z,14.34
2023-02-17T14:35:12.047Z,14.29
2023-02-17T14:37:42.064Z,14.29
2023-02-17T14:40:23.980Z,14.22
2023-02-17T14:42:52.681Z,14.30
2023-02-17T14:45:21.161Z,14.31
2023-02-17T14:47:50.820Z,14.34
2023-02-17T14:50:19.389Z,14.41
2023-02-17T14:52:50.062Z,14.49
2023-02-17T14:55:42.553Z,14.37
2023-02-17T14:58:20.022Z,14.34
2023-02-17T15:00:49.754Z,14.43
2023-02-17T15:03:18.817Z,14.41
2023-02-17T15:05:47.912Z,14.49
2023-02-17T15:08:19.616Z,14.61
2023-02-17T15:10:49.591Z,14.67
2023-02-17T15:13:22.414Z,14.71
2023-02-17T15:15:51.066Z,14.66
2023-02-17T15:18:21.308Z,14.64
2023-02-17T15:20:51.923Z,14.62
2023-02-17T15:23:23.129Z,14.58
2023-02-17T15:25:53.945Z,14.59
2023-02-17T15:28:22.602Z,14.66
2023-02-17T15:30:54.839Z,14.69
2023-02-17T15:33:24.387Z,14.72
2023-02-17T15:35:55.089Z,14.75
2023-02-17T15:38:24.702Z,14.74
2023-02-17T15:40:57.109Z,14.76
2023-02-17T15:46:14.692Z,14.74
2023-02-17T15:48:45.001Z,14.76
2023-02-17T15:51:16.141Z,14.67
2023-02-17T15:53:44.595Z,14.67
2023-02-17T15:56:22.549Z,14.71
2023-02-17T15:58:51.157Z,14.80
2023-02-17T16:01:34.002Z,14.86
2023-02-17T16:04:02.776Z,14.75
2023-02-17T16:06:31.623Z,14.77
2023-02-17T16:09:00.142Z,14.82
2023-02-17T16:11:29.353Z,14.81
2023-02-17T16:13:57.868Z,14.76
2023-02-17T16:16:33.055Z,14.74
2023-02-17T16:19:02.537Z,14.78
2023-02-17T16:21:30.983Z,14.83
2023-02-17T16:24:00.674Z,14.84
2023-02-17T16:26:37.447Z,14.91
2023-02-17T16:29:18.675Z,14.93
2023-02-17T16:31:48.112Z,14.88
2023-02-17T16:34:22.999Z,14.86
2023-02-17T16:36:55.127Z,14.91
2023-02-17T16:39:23.774Z,14.96
2023-02-17T16:41:52.633Z,14.95
2023-02-17T16:44:22.968Z,15.01
2023-02-17T16:46:55.484Z,15.08
2023-02-17T16:49:34.119Z,15.06
2023-02-17T16:52:07.501Z,15.05
2023-02-17T16:54:36.127Z,15.10
2023-02-17T16:57:04.699Z,15.22
2023-02-17T16:59:33.206Z,15.30
2023-02-17T17:02:01.989Z,15.29
2023-02-17T17:04:30.516Z,15.33
2023-02-17T17:06:59.139Z,15.31
2023-02-17T17:09:28.266Z,15.36
2023-02-17T17:11:57.715Z,15.35
2023-02-17T17:14:26.207Z,15.42
2023-02-17T17:17:01.862Z,15.47
2023-02-17T17:19:30.357Z,15.48
2023-02-17T17:21:58.815Z,15.56
2023-02-17T17:24:27.480Z,15.68
2023-02-17T17:26:56.277Z,15.79
2023-02-17T17:29:24.789Z,15.91
2023-02-17T17:31:53.568Z,15.97
2023-02-17T17:34:22.264Z,15.96
2023-02-17T17:36:50.709Z,15.96
2023-02-17T17:39:24.292Z,16.04
2023-02-17T17:41:52.920Z,16.10
2023-02-17T17:44:22.155Z,16.17
2023-02-17T17:46:50.714Z,16.16
2023-02-17T17:49:19.200Z,16.08
2023-02-17T17:51:47.651Z,15.99
2023-02-17T17:54:16.517Z,16.05
2023-02-17T17:56:45.287Z,16.10
2023-02-17T17:59:14.538Z,15.99
2023-02-17T18:01:45.530Z,16.04
2023-02-17T18:04:14.600Z,16.07
2023-02-17T18:06:47.742Z,16.14
2023-02-17T18:09:31.274Z,16.23
2023-02-17T18:12:06.011Z,16.27
2023-02-17T18:14:37.979Z,16.26
2023-02-17T18:17:08.049Z,16.27
2023-02-17T18:19:36.738Z,16.29
2023-02-17T18:22:05.465Z,16.30
2023-02-17T18:24:34.426Z,16.27
2023-02-17T18:27:03.308Z,16.34
2023-02-17T18:29:32.034Z,16.41
2023-02-17T18:32:00.766Z,16.37
2023-02-17T18:34:29.346Z,16.30
2023-02-17T18:36:57.883Z,16.41
2023-02-17T18:39:26.683Z,16.44
2023-02-17T18:41:55.201Z,16.45
2023-02-17T18:44:23.645Z,16.53
2023-02-17T18:46:52.320Z,16.61
2023-02-17T18:49:20.719Z,16.57
2023-02-17T18:51:50.547Z,16.69
2023-02-17T18:54:19.485Z,16.71
2023-02-17T18:56:48.156Z,16.62
2023-02-17T18:59:16.673Z,16.59
2023-02-17T19:01:45.266Z,16.58
2023-02-17T19:04:15.466Z,16.56
2023-02-17T19:06:43.926Z,16.64
2023-02-17T19:09:12.589Z,16.52
2023-02-17T19:11:41.434Z,15.72
2023-02-17T19:14:09.856Z,15.75
2023-02-17T19:16:39.240Z,16.10
2023-02-17T19:19:07.703Z,16.24
2023-02-17T19:21:36.494Z,16.38
2023-02-17T19:24:05.373Z,16.50
2023-02-17T19:26:34.343Z,16.19
2023-02-17T19:29:02.922Z,15.36
2023-02-17T19:31:31.667Z,15.09
2023-02-17T19:34:00.273Z,15.40
2023-02-17T19:36:28.722Z,15.58
2023-02-17T19:38:57.813Z,15.69
2023-02-17T19:41:26.305Z,15.67
2023-02-17T19:43:54.751Z,15.80
2023-02-17T19:46:24.878Z,15.88
2023-02-17T19:48:53.383Z,15.59
2023-02-17T19:51:21.982Z,14.95
2023-02-17T19:53:50.518Z,14.87
2023-02-17T19:56:21.865Z,15.21
2023-02-17T19:58:52.034Z,15.49
2023-02-17T20:01:23.902Z,15.13
2023-02-17T20:03:54.881Z,14.63
2023-02-17T20:06:29.079Z,14.73
2023-02-17T20:09:00.458Z,15.05
2023-02-17T20:11:29.618Z,15.20
2023-02-17T20:13:59.953Z,15.25
2023-02-17T20:16:29.880Z,15.28
2023-02-17T20:19:01.349Z,14.82
2023-02-17T20:21:32.609Z,14.05
2023-02-17T20:24:01.865Z,13.47
2023-02-17T20:26:38.285Z,13.04
2023-02-17T20:29:07.154Z,12.68
2023-02-17T20:31:37.232Z,13.15
2023-02-17T20:34:07.772Z,13.50
2023-02-17T20:36:36.272Z,12.96
2023-02-17T20:39:05.202Z,12.48
2023-02-17T20:41:33.771Z,12.13
2023-02-17T20:44:04.389Z,11.85
2023-02-17T20:46:32.999Z,11.61
2023-02-17T20:49:01.439Z,11.59
2023-02-17T20:51:29.999Z,12.81
2023-02-17T20:53:58.399Z,12.87
2023-02-17T20:56:34.514Z,12.35
2023-02-17T20:59:04.344Z,11.87
2023-02-17T21:01:32.982Z,11.53
2023-02-17T21:04:02.445Z,11.27
2023-02-17T21:06:34.753Z,11.28
2023-02-17T21:09:07.348Z,11.72
2023-02-17T21:11:36.216Z,11.54
2023-02-17T21:14:04.667Z,11.23
2023-02-17T21:16:33.287Z,10.97
2023-02-17T21:19:02.500Z,10.78
2023-02-17T21:21:32.221Z,10.63
2023-02-17T21:24:00.758Z,10.49
2023-02-17T21:26:29.244Z,10.36
2023-02-17T21:28:57.720Z,10.25
2023-02-17T21:31:29.306Z,10.14
2023-02-17T21:33:59.147Z,10.03
2023-02-17T21:36:29.349Z,9.92
2023-02-17T21:38:59.391Z,9.82
2023-02-17T21:41:30.021Z,9.72
2023-02-17T21:44:18.639Z,9.63
2023-02-17T21:46:47.162Z,9.56
2023-02-17T21:49:15.678Z,9.49
2023-02-17T21:51:44.430Z,9.43
2023-02-17T21:54:13.060Z,9.36
2023-02-17T21:56:41.530Z,9.31
2023-02-17T21:59:10.106Z,9.27
2023-02-17T22:01:38.704Z,9.21
2023-02-17T22:04:07.191Z,9.16
2023-02-17T22:06:38.928Z,9.11
2023-02-17T22:09:09.614Z,9.07
2023-02-17T22:11:41.022Z,9.02
2023-02-17T22:14:13.958Z,8.98
2023-02-17T22:16:43.014Z,8.93
2023-02-17T22:19:31.457Z,8.88
2023-02-17T22:22:00.145Z,8.82
2023-02-17T22:24:28.650Z,8.77
2023-02-17T22:26:57.464Z,8.74
2023-02-17T22:29:26.042Z,8.70
2023-02-17T22:31:56.303Z,8.66
2023-02-17T22:34:27.763Z,8.63
2023-02-17T22:36:56.442Z,8.60
2023-02-17T22:39:24.982Z,8.55
2023-02-17T22:41:53.713Z,8.52
2023-02-17T22:44:22.675Z,8.48
2023-02-17T22:46:51.123Z,8.45
2023-02-17T22:49:19.625Z,8.42
2023-02-17T22:51:48.761Z,8.38
2023-02-17T22:54:17.253Z,8.34
2023-02-17T22:56:45.894Z,8.30
2023-02-17T22:59:14.342Z,8.26
2023-02-17T23:01:43.028Z,8.21
2023-02-17T23:04:14.296Z,8.16
2023-02-17T23:06:43.862Z,8.11
2023-02-17T23:09:18.146Z,8.05
2023-02-17T23:11:50.253Z,8.00
2023-02-17T23:14:31.419Z,7.96
2023-02-17T23:17:03.382Z,7.92
2023-02-17T23:19:33.490Z,7.90
2023-02-17T23:22:08.629Z,7.88
2023-02-17T23:24:37.466Z,7.86
2023-02-17T23:27:06.278Z,7.83
2023-02-17T23:29:34.966Z,7.81
2023-02-17T23:32:03.506Z,7.78
2023-02-17T23:34:32.265Z,7.75
2023-02-17T23:37:01.062Z,7.73
2023-02-17T23:39:29.663Z,7.71
2023-02-17T23:41:58.182Z,7.69
2023-02-17T23:44:26.620Z,7.68
2023-02-17T23:46:55.115Z,7.68
2023-02-17T23:49:23.528Z,7.66
2023-02-17T23:51:52.820Z,7.64
2023-02-17T23:54:22.924Z,7.62
2023-02-17T23:56:51.355Z,7.61
2023-02-17T23:59:19.827Z,7.57
